sensor_id;sensor_type;location;lat;lon;timestamp;P1;durP1;ratioP1;P2;durP2;ratioP2
58302;SDS011;44109;52.398;7.024;2022-09-12T00:00:49;16.55;;;11.13;;
58302;SDS011;44109;52.398;7.024;2022-09-12T00:03:18;15.95;;;9.50;;
58302;SDS011;44109;52.398;7.024;2022-09-12T00:05:46;12.63;;;9.32;;
58302;SDS011;44109;52.398;7.024;2022-09-12T00:08:13;16.02;;;10.52;;
58302;SDS011;44109;52.398;7.024;2022-09-12T00:10:42;12.82;;;9.23;;
58302;SDS011;44109;52.398;7.024;2022-09-12T00:13:10;14.80;;;10.05;;
58302;SDS011;44109;52.398;7.024;2022-09-12T00:15:38;15.90;;;11.18;;
58302;SDS011;44109;52.398;7.024;2022-09-12T00:18:08;14.55;;;10.20;;
58302;SDS011;44109;52.398;7.024;2022-09-12T00:20:41;14.80;;;10.68;;
58302;SDS011;44109;52.398;7.024;2022-09-12T00:23:10;13.10;;;10.18;;
58302;SDS011;44109;52.398;7.024;2022-09-12T00:25:41;14.20;;;10.65;;
58302;SDS011;44109;52.398;7.024;2022-09-12T00:28:10;14.38;;;9.98;;
58302;SDS011;44109;52.398;7.024;2022-09-12T00:30:41;13.82;;;8.93;;
58302;SDS011;44109;52.398;7.024;2022-09-12T00:33:09;13.65;;;9.30;;
58302;SDS011;44109;52.398;7.024;2022-09-12T00:35:42;15.63;;;10.10;;
58302;SDS011;44109;52.398;7.024;2022-09-12T00:38:11;13.07;;;9.07;;
58302;SDS011;44109;52.398;7.024;2022-09-12T00:40:40;13.30;;;9.38;;
58302;SDS011;44109;52.398;7.024;2022-09-12T00:43:10;14.60;;;10.15;;
58302;SDS011;44109;52.398;7.024;2022-09-12T00:45:40;11.63;;;8.38;;
58302;SDS011;44109;52.398;7.024;2022-09-12T00:48:14;13.30;;;10.07;;
58302;SDS011;44109;52.398;7.024;2022-09-12T00:50:56;15.98;;;11.88;;
58302;SDS011;44109;52.398;7.024;2022-09-12T00:53:24;17.42;;;11.38;;
58302;SDS011;44109;52.398;7.024;2022-09-12T00:55:52;14.05;;;10.13;;
58302;SDS011;44109;52.398;7.024;2022-09-12T00:58:23;15.07;;;10.48;;
58302;SDS011;44109;52.398;7.024;2022-09-12T01:00:55;13.98;;;10.02;;
58302;SDS011;44109;52.398;7.024;2022-09-12T01:03:24;11.40;;;8.90;;
58302;SDS011;44109;52.398;7.024;2022-09-12T01:05:56;14.45;;;9.90;;
58302;SDS011;44109;52.398;7.024;2022-09-12T01:08:35;12.77;;;9.95;;
58302;SDS011;44109;52.398;7.024;2022-09-12T01:11:05;11.20;;;7.82;;
58302;SDS011;44109;52.398;7.024;2022-09-12T01:13:37;10.88;;;7.72;;
58302;SDS011;44109;52.398;7.024;2022-09-12T01:16:05;11.82;;;8.63;;
58302;SDS011;44109;52.398;7.024;2022-09-12T01:18:38;13.80;;;8.98;;
58302;SDS011;44109;52.398;7.024;2022-09-12T01:21:33;12.73;;;9.25;;
58302;SDS011;44109;52.398;7.024;2022-09-12T01:24:32;12.38;;;8.80;;
58302;SDS011;44109;52.398;7.024;2022-09-12T01:33:15;13.63;;;8.43;;
58302;SDS011;44109;52.398;7.024;2022-09-12T01:39:05;13.23;;;8.13;;
58302;SDS011;44109;52.398;7.024;2022-09-12T01:41:48;10.95;;;7.53;;
58302;SDS011;44109;52.398;7.024;2022-09-12T01:44:29;11.38;;;8.00;;
58302;SDS011;44109;52.398;7.024;2022-09-12T01:47:12;12.77;;;8.65;;
58302;SDS011;44109;52.398;7.024;2022-09-12T01:49:49;12.52;;;8.77;;
58302;SDS011;44109;52.398;7.024;2022-09-12T01:52:27;11.77;;;8.75;;
58302;SDS011;44109;52.398;7.024;2022-09-12T01:55:04;13.05;;;9.20;;
58302;SDS011;44109;52.398;7.024;2022-09-12T01:57:39;14.40;;;9.27;;
58302;SDS011;44109;52.398;7.024;2022-09-12T02:00:15;13.95;;;9.07;;
58302;SDS011;44109;52.398;7.024;2022-09-12T02:02:46;12.40;;;8.20;;
58302;SDS011;44109;52.398;7.024;2022-09-12T02:05:24;12.73;;;8.48;;
58302;SDS011;44109;52.398;7.024;2022-09-12T02:08:00;10.35;;;7.38;;
58302;SDS011;44109;52.398;7.024;2022-09-12T02:10:33;11.75;;;7.90;;
58302;SDS011;44109;52.398;7.024;2022-09-12T02:13:10;13.65;;;8.75;;
58302;SDS011;44109;52.398;7.024;2022-09-12T02:15:45;11.85;;;7.90;;
58302;SDS011;44109;52.398;7.024;2022-09-12T02:18:19;10.90;;;8.23;;
58302;SDS011;44109;52.398;7.024;2022-09-12T02:20:47;14.32;;;9.85;;
58302;SDS011;44109;52.398;7.024;2022-09-12T02:23:18;11.13;;;7.72;;
58302;SDS011;44109;52.398;7.024;2022-09-12T02:25:52;12.60;;;8.73;;
58302;SDS011;44109;52.398;7.024;2022-09-12T02:28:26;10.65;;;8.00;;
58302;SDS011;44109;52.398;7.024;2022-09-12T02:31:00;11.10;;;7.82;;
58302;SDS011;44109;52.398;7.024;2022-09-12T02:33:42;12.52;;;8.80;;
58302;SDS011;44109;52.398;7.024;2022-09-12T02:36:22;11.82;;;7.85;;
58302;SDS011;44109;52.398;7.024;2022-09-12T02:39:05;12.70;;;8.70;;
58302;SDS011;44109;52.398;7.024;2022-09-12T02:41:34;12.10;;;9.02;;
58302;SDS011;44109;52.398;7.024;2022-09-12T02:44:02;10.50;;;8.05;;
58302;SDS011;44109;52.398;7.024;2022-09-12T02:46:32;10.27;;;7.68;;
58302;SDS011;44109;52.398;7.024;2022-09-12T02:49:09;11.43;;;7.88;;
58302;SDS011;44109;52.398;7.024;2022-09-12T02:51:37;12.75;;;8.15;;
58302;SDS011;44109;52.398;7.024;2022-09-12T02:54:05;10.13;;;7.60;;
58302;SDS011;44109;52.398;7.024;2022-09-12T02:56:34;10.52;;;7.20;;
58302;SDS011;44109;52.398;7.024;2022-09-12T02:59:03;10.20;;;7.57;;
58302;SDS011;44109;52.398;7.024;2022-09-12T03:01:39;13.70;;;8.15;;
58302;SDS011;44109;52.398;7.024;2022-09-12T03:04:35;8.93;;;7.28;;
58302;SDS011;44109;52.398;7.024;2022-09-12T03:07:15;10.20;;;7.03;;
58302;SDS011;44109;52.398;7.024;2022-09-12T03:10:04;12.45;;;8.00;;
58302;SDS011;44109;52.398;7.024;2022-09-12T03:12:46;11.02;;;8.40;;
58302;SDS011;44109;52.398;7.024;2022-09-12T03:15:27;9.70;;;7.05;;
58302;SDS011;44109;52.398;7.024;2022-09-12T03:18:17;10.82;;;7.35;;
58302;SDS011;44109;52.398;7.024;2022-09-12T03:21:01;10.40;;;6.97;;
58302;SDS011;44109;52.398;7.024;2022-09-12T03:23:36;9.73;;;6.82;;
58302;SDS011;44109;52.398;7.024;2022-09-12T03:26:15;10.07;;;7.38;;
58302;SDS011;44109;52.398;7.024;2022-09-12T03:28:51;8.95;;;6.53;;
58302;SDS011;44109;52.398;7.024;2022-09-12T03:31:24;9.52;;;6.88;;
58302;SDS011;44109;52.398;7.024;2022-09-12T03:33:52;10.52;;;7.18;;
58302;SDS011;44109;52.398;7.024;2022-09-12T03:36:21;11.70;;;7.13;;
58302;SDS011;44109;52.398;7.024;2022-09-12T03:38:51;11.93;;;8.32;;
58302;SDS011;44109;52.398;7.024;2022-09-12T03:41:19;10.68;;;8.05;;
58302;SDS011;44109;52.398;7.024;2022-09-12T03:43:47;12.88;;;8.10;;
58302;SDS011;44109;52.398;7.024;2022-09-12T03:46:15;12.05;;;8.88;;
58302;SDS011;44109;52.398;7.024;2022-09-12T03:48:42;13.40;;;9.57;;
58302;SDS011;44109;52.398;7.024;2022-09-12T03:51:10;12.20;;;8.52;;
58302;SDS011;44109;52.398;7.024;2022-09-12T03:53:39;13.52;;;8.57;;
58302;SDS011;44109;52.398;7.024;2022-09-12T03:56:07;14.07;;;8.48;;
58302;SDS011;44109;52.398;7.024;2022-09-12T03:58:37;12.82;;;8.52;;
58302;SDS011;44109;52.398;7.024;2022-09-12T04:01:05;10.90;;;7.40;;
58302;SDS011;44109;52.398;7.024;2022-09-12T04:03:37;11.65;;;8.43;;
58302;SDS011;44109;52.398;7.024;2022-09-12T04:06:06;17.80;;;11.68;;
58302;SDS011;44109;52.398;7.024;2022-09-12T04:08:35;19.33;;;13.27;;
58302;SDS011;44109;52.398;7.024;2022-09-12T04:11:06;19.20;;;12.00;;
58302;SDS011;44109;52.398;7.024;2022-09-12T04:13:37;20.92;;;12.45;;
58302;SDS011;44109;52.398;7.024;2022-09-12T04:16:07;18.85;;;12.45;;
58302;SDS011;44109;52.398;7.024;2022-09-12T04:18:36;21.58;;;13.85;;
58302;SDS011;44109;52.398;7.024;2022-09-12T04:21:05;18.35;;;11.52;;
58302;SDS011;44109;52.398;7.024;2022-09-12T04:23:34;19.02;;;12.02;;
58302;SDS011;44109;52.398;7.024;2022-09-12T04:26:03;21.67;;;14.30;;
58302;SDS011;44109;52.398;7.024;2022-09-12T04:28:33;17.13;;;12.00;;
58302;SDS011;44109;52.398;7.024;2022-09-12T04:31:04;15.70;;;11.07;;
58302;SDS011;44109;52.398;7.024;2022-09-12T04:33:34;16.50;;;10.60;;
58302;SDS011;44109;52.398;7.024;2022-09-12T04:36:03;21.35;;;13.95;;
58302;SDS011;44109;52.398;7.024;2022-09-12T04:38:32;18.90;;;12.15;;
58302;SDS011;44109;52.398;7.024;2022-09-12T04:41:10;25.88;;;14.52;;
58302;SDS011;44109;52.398;7.024;2022-09-12T04:43:38;19.27;;;13.10;;
58302;SDS011;44109;52.398;7.024;2022-09-12T04:46:06;20.70;;;13.60;;
58302;SDS011;44109;52.398;7.024;2022-09-12T04:48:35;20.15;;;11.93;;
58302;SDS011;44109;52.398;7.024;2022-09-12T04:51:07;20.95;;;13.70;;
58302;SDS011;44109;52.398;7.024;2022-09-12T04:53:37;22.67;;;14.00;;
58302;SDS011;44109;52.398;7.024;2022-09-12T04:56:05;21.27;;;13.68;;
58302;SDS011;44109;52.398;7.024;2022-09-12T04:58:37;26.77;;;16.63;;
58302;SDS011;44109;52.398;7.024;2022-09-12T05:01:05;19.95;;;14.50;;
58302;SDS011;44109;52.398;7.024;2022-09-12T05:03:34;20.58;;;13.52;;
58302;SDS011;44109;52.398;7.024;2022-09-12T05:06:04;24.38;;;15.15;;
58302;SDS011;44109;52.398;7.024;2022-09-12T05:08:34;18.90;;;13.00;;
58302;SDS011;44109;52.398;7.024;2022-09-12T05:11:02;26.90;;;15.90;;
58302;SDS011;44109;52.398;7.024;2022-09-12T05:13:32;25.70;;;15.85;;
58302;SDS011;44109;52.398;7.024;2022-09-12T05:16:02;24.05;;;15.05;;
58302;SDS011;44109;52.398;7.024;2022-09-12T05:18:33;22.98;;;15.65;;
58302;SDS011;44109;52.398;7.024;2022-09-12T05:21:04;21.67;;;14.10;;
58302;SDS011;44109;52.398;7.024;2022-09-12T05:23:34;24.85;;;14.93;;
58302;SDS011;44109;52.398;7.024;2022-09-12T05:26:02;21.08;;;14.88;;
58302;SDS011;44109;52.398;7.024;2022-09-12T05:28:31;22.90;;;16.00;;
58302;SDS011;44109;52.398;7.024;2022-09-12T05:31:04;20.85;;;14.82;;
58302;SDS011;44109;52.398;7.024;2022-09-12T05:33:35;24.60;;;14.45;;
58302;SDS011;44109;52.398;7.024;2022-09-12T05:36:06;24.70;;;16.23;;
58302;SDS011;44109;52.398;7.024;2022-09-12T05:38:38;22.85;;;16.00;;
58302;SDS011;44109;52.398;7.024;2022-09-12T05:41:06;25.92;;;17.88;;
58302;SDS011;44109;52.398;7.024;2022-09-12T05:43:37;27.77;;;18.63;;
58302;SDS011;44109;52.398;7.024;2022-09-12T05:46:08;23.90;;;17.02;;
58302;SDS011;44109;52.398;7.024;2022-09-12T05:48:39;25.10;;;15.63;;
58302;SDS011;44109;52.398;7.024;2022-09-12T05:51:10;26.00;;;17.00;;
58302;SDS011;44109;52.398;7.024;2022-09-12T05:53:42;24.77;;;16.27;;
58302;SDS011;44109;52.398;7.024;2022-09-12T05:56:10;22.83;;;16.63;;
58302;SDS011;44109;52.398;7.024;2022-09-12T05:58:41;24.25;;;16.95;;
58302;SDS011;44109;52.398;7.024;2022-09-12T06:01:13;25.17;;;18.67;;
58302;SDS011;44109;52.398;7.024;2022-09-12T06:03:43;29.60;;;18.45;;
58302;SDS011;44109;52.398;7.024;2022-09-12T06:06:13;27.35;;;18.40;;
58302;SDS011;44109;52.398;7.024;2022-09-12T06:08:44;30.42;;;19.60;;
58302;SDS011;44109;52.398;7.024;2022-09-12T06:11:14;26.30;;;18.02;;
58302;SDS011;44109;52.398;7.024;2022-09-12T06:13:46;26.25;;;18.23;;
58302;SDS011;44109;52.398;7.024;2022-09-12T06:16:16;25.92;;;17.35;;
58302;SDS011;44109;52.398;7.024;2022-09-12T06:18:46;31.17;;;21.15;;
58302;SDS011;44109;52.398;7.024;2022-09-12T06:21:15;32.60;;;20.70;;
58302;SDS011;44109;52.398;7.024;2022-09-12T06:23:43;34.30;;;21.55;;
58302;SDS011;44109;52.398;7.024;2022-09-12T06:26:11;30.80;;;20.63;;
58302;SDS011;44109;52.398;7.024;2022-09-12T06:28:41;25.75;;;17.13;;
58302;SDS011;44109;52.398;7.024;2022-09-12T06:31:11;25.45;;;17.58;;
58302;SDS011;44109;52.398;7.024;2022-09-12T06:33:43;28.52;;;20.52;;
58302;SDS011;44109;52.398;7.024;2022-09-12T06:36:16;26.50;;;16.42;;
58302;SDS011;44109;52.398;7.024;2022-09-12T06:38:46;26.10;;;16.67;;
58302;SDS011;44109;52.398;7.024;2022-09-12T06:41:19;26.42;;;18.60;;
58302;SDS011;44109;52.398;7.024;2022-09-12T06:43:46;31.65;;;20.48;;
58302;SDS011;44109;52.398;7.024;2022-09-12T06:46:15;27.58;;;17.55;;
58302;SDS011;44109;52.398;7.024;2022-09-12T06:48:43;26.08;;;17.65;;
58302;SDS011;44109;52.398;7.024;2022-09-12T06:51:12;29.02;;;18.88;;
58302;SDS011;44109;52.398;7.024;2022-09-12T06:53:42;25.05;;;18.10;;
58302;SDS011;44109;52.398;7.024;2022-09-12T06:56:11;26.35;;;18.50;;
58302;SDS011;44109;52.398;7.024;2022-09-12T06:58:41;26.88;;;18.00;;
58302;SDS011;44109;52.398;7.024;2022-09-12T07:01:10;29.90;;;18.23;;
58302;SDS011;44109;52.398;7.024;2022-09-12T07:03:41;24.20;;;17.10;;
58302;SDS011;44109;52.398;7.024;2022-09-12T07:06:13;28.65;;;17.38;;
58302;SDS011;44109;52.398;7.024;2022-09-12T07:08:43;26.23;;;16.70;;
58302;SDS011;44109;52.398;7.024;2022-09-12T07:11:12;20.15;;;14.00;;
58302;SDS011;44109;52.398;7.024;2022-09-12T07:13:42;24.33;;;16.67;;
58302;SDS011;44109;52.398;7.024;2022-09-12T07:16:12;25.55;;;16.65;;
58302;SDS011;44109;52.398;7.024;2022-09-12T07:18:42;18.55;;;13.35;;
58302;SDS011;44109;52.398;7.024;2022-09-12T07:21:12;23.85;;;15.63;;
58302;SDS011;44109;52.398;7.024;2022-09-12T07:23:40;22.23;;;15.38;;
58302;SDS011;44109;52.398;7.024;2022-09-12T07:26:10;24.90;;;18.35;;
58302;SDS011;44109;52.398;7.024;2022-09-12T07:28:39;21.08;;;14.38;;
58302;SDS011;44109;52.398;7.024;2022-09-12T07:31:08;16.55;;;13.52;;
58302;SDS011;44109;52.398;7.024;2022-09-12T07:33:37;22.30;;;15.07;;
58302;SDS011;44109;52.398;7.024;2022-09-12T07:36:09;24.67;;;17.85;;
58302;SDS011;44109;52.398;7.024;2022-09-12T07:38:39;19.60;;;13.93;;
58302;SDS011;44109;52.398;7.024;2022-09-12T07:41:11;23.95;;;16.30;;
58302;SDS011;44109;52.398;7.024;2022-09-12T07:43:39;20.70;;;15.10;;
58302;SDS011;44109;52.398;7.024;2022-09-12T07:46:07;24.88;;;16.75;;
58302;SDS011;44109;52.398;7.024;2022-09-12T07:48:36;22.42;;;14.93;;
58302;SDS011;44109;52.398;7.024;2022-09-12T07:51:06;22.27;;;14.88;;
58302;SDS011;44109;52.398;7.024;2022-09-12T07:53:38;20.65;;;14.18;;
58302;SDS011;44109;52.398;7.024;2022-09-12T07:56:08;21.33;;;15.60;;
58302;SDS011;44109;52.398;7.024;2022-09-12T07:58:38;20.08;;;14.38;;
58302;SDS011;44109;52.398;7.024;2022-09-12T08:01:08;21.73;;;15.13;;
58302;SDS011;44109;52.398;7.024;2022-09-12T08:03:38;22.98;;;15.77;;
58302;SDS011;44109;52.398;7.024;2022-09-12T08:06:09;20.25;;;14.55;;
58302;SDS011;44109;52.398;7.024;2022-09-12T08:08:39;18.58;;;13.45;;
58302;SDS011;44109;52.398;7.024;2022-09-12T08:11:07;19.50;;;14.35;;
58302;SDS011;44109;52.398;7.024;2022-09-12T08:13:39;22.20;;;16.98;;
58302;SDS011;44109;52.398;7.024;2022-09-12T08:16:08;19.83;;;13.82;;
58302;SDS011;44109;52.398;7.024;2022-09-12T08:18:40;20.10;;;14.38;;
58302;SDS011;44109;52.398;7.024;2022-09-12T08:21:11;23.17;;;16.25;;
58302;SDS011;44109;52.398;7.024;2022-09-12T08:23:41;22.10;;;15.43;;
58302;SDS011;44109;52.398;7.024;2022-09-12T08:26:10;16.90;;;13.20;;
58302;SDS011;44109;52.398;7.024;2022-09-12T08:28:39;22.58;;;16.63;;
58302;SDS011;44109;52.398;7.024;2022-09-12T08:31:13;19.63;;;14.43;;
58302;SDS011;44109;52.398;7.024;2022-09-12T08:33:43;21.30;;;14.75;;
58302;SDS011;44109;52.398;7.024;2022-09-12T08:36:13;24.02;;;17.15;;
58302;SDS011;44109;52.398;7.024;2022-09-12T08:38:45;23.35;;;17.75;;
58302;SDS011;44109;52.398;7.024;2022-09-12T08:41:18;23.20;;;16.60;;
58302;SDS011;44109;52.398;7.024;2022-09-12T08:43:57;21.73;;;15.65;;
58302;SDS011;44109;52.398;7.024;2022-09-12T08:46:59;23.40;;;16.20;;
58302;SDS011;44109;52.398;7.024;2022-09-12T08:49:47;19.42;;;14.48;;
58302;SDS011;44109;52.398;7.024;2022-09-12T08:52:28;21.88;;;14.90;;
58302;SDS011;44109;52.398;7.024;2022-09-12T08:55:04;23.50;;;17.35;;
58302;SDS011;44109;52.398;7.024;2022-09-12T08:57:48;23.25;;;16.80;;
58302;SDS011;44109;52.398;7.024;2022-09-12T09:00:16;21.67;;;15.25;;
58302;SDS011;44109;52.398;7.024;2022-09-12T09:02:56;23.63;;;17.15;;
58302;SDS011;44109;52.398;7.024;2022-09-12T09:05:45;23.70;;;16.52;;
58302;SDS011;44109;52.398;7.024;2022-09-12T09:08:36;19.83;;;14.20;;
58302;SDS011;44109;52.398;7.024;2022-09-12T09:11:27;24.20;;;17.83;;
58302;SDS011;44109;52.398;7.024;2022-09-12T09:14:20;25.15;;;18.10;;
58302;SDS011;44109;52.398;7.024;2022-09-12T09:17:31;21.88;;;15.80;;
58302;SDS011;44109;52.398;7.024;2022-09-12T09:20:06;20.40;;;13.80;;
58302;SDS011;44109;52.398;7.024;2022-09-12T09:22:49;21.70;;;14.45;;
58302;SDS011;44109;52.398;7.024;2022-09-12T09:25:24;21.17;;;15.70;;
58302;SDS011;44109;52.398;7.024;2022-09-12T09:28:11;20.20;;;13.93;;
58302;SDS011;44109;52.398;7.024;2022-09-12T09:30:45;21.40;;;15.48;;
58302;SDS011;44109;52.398;7.024;2022-09-12T09:33:16;25.10;;;15.48;;
58302;SDS011;44109;52.398;7.024;2022-09-12T09:35:50;26.55;;;17.13;;
58302;SDS011;44109;52.398;7.024;2022-09-12T09:38:28;27.13;;;18.90;;
58302;SDS011;44109;52.398;7.024;2022-09-12T09:41:13;24.33;;;15.90;;
58302;SDS011;44109;52.398;7.024;2022-09-12T09:44:01;25.38;;;18.85;;
58302;SDS011;44109;52.398;7.024;2022-09-12T09:46:29;25.38;;;17.45;;
58302;SDS011;44109;52.398;7.024;2022-09-12T09:48:58;26.05;;;16.77;;
58302;SDS011;44109;52.398;7.024;2022-09-12T09:51:32;27.90;;;19.73;;
58302;SDS011;44109;52.398;7.024;2022-09-12T09:54:02;27.23;;;19.40;;
58302;SDS011;44109;52.398;7.024;2022-09-12T09:56:45;27.63;;;17.73;;
58302;SDS011;44109;52.398;7.024;2022-09-12T09:59:15;26.15;;;16.27;;
58302;SDS011;44109;52.398;7.024;2022-09-12T10:01:45;26.70;;;16.25;;
58302;SDS011;44109;52.398;7.024;2022-09-12T10:04:16;22.92;;;15.18;;
58302;SDS011;44109;52.398;7.024;2022-09-12T10:06:47;21.45;;;14.27;;
58302;SDS011;44109;52.398;7.024;2022-09-12T10:09:20;22.48;;;15.30;;
58302;SDS011;44109;52.398;7.024;2022-09-12T10:11:53;21.58;;;14.45;;
58302;SDS011;44109;52.398;7.024;2022-09-12T10:14:30;25.50;;;15.23;;
58302;SDS011;44109;52.398;7.024;2022-09-12T10:17:24;27.42;;;17.13;;
58302;SDS011;44109;52.398;7.024;2022-09-12T10:19:56;25.98;;;16.30;;
58302;SDS011;44109;52.398;7.024;2022-09-12T10:22:25;22.00;;;15.30;;
58302;SDS011;44109;52.398;7.024;2022-09-12T10:24:55;24.13;;;17.42;;
58302;SDS011;44109;52.398;7.024;2022-09-12T10:27:29;25.77;;;16.75;;
58302;SDS011;44109;52.398;7.024;2022-09-12T10:29:59;22.65;;;15.63;;
58302;SDS011;44109;52.398;7.024;2022-09-12T10:32:33;20.67;;;13.38;;
58302;SDS011;44109;52.398;7.024;2022-09-12T10:35:07;23.38;;;15.48;;
58302;SDS011;44109;52.398;7.024;2022-09-12T10:37:49;20.33;;;14.27;;
58302;SDS011;44109;52.398;7.024;2022-09-12T10:40:22;24.33;;;16.40;;
58302;SDS011;44109;52.398;7.024;2022-09-12T10:42:55;22.00;;;13.35;;
58302;SDS011;44109;52.398;7.024;2022-09-12T10:45:25;22.08;;;15.38;;
58302;SDS011;44109;52.398;7.024;2022-09-12T10:47:56;26.50;;;18.00;;
58302;SDS011;44109;52.398;7.024;2022-09-12T10:50:28;21.02;;;13.98;;
58302;SDS011;44109;52.398;7.024;2022-09-12T10:53:14;21.38;;;14.07;;
58302;SDS011;44109;52.398;7.024;2022-09-12T10:58:41;22.10;;;14.20;;
58302;SDS011;44109;52.398;7.024;2022-09-12T11:01:36;18.88;;;12.32;;
58302;SDS011;44109;52.398;7.024;2022-09-12T11:04:13;20.15;;;14.75;;
58302;SDS011;44109;52.398;7.024;2022-09-12T11:09:35;17.80;;;12.35;;
58302;SDS011;44109;52.398;7.024;2022-09-12T11:12:17;18.75;;;11.30;;
58302;SDS011;44109;52.398;7.024;2022-09-12T11:15:00;17.83;;;12.15;;
58302;SDS011;44109;52.398;7.024;2022-09-12T11:17:46;15.65;;;12.07;;
58302;SDS011;44109;52.398;7.024;2022-09-12T11:20:34;15.05;;;10.77;;
58302;SDS011;44109;52.398;7.024;2022-09-12T11:26:46;16.48;;;10.90;;
58302;SDS011;44109;52.398;7.024;2022-09-12T11:29:36;14.40;;;10.40;;
58302;SDS011;44109;52.398;7.024;2022-09-12T11:35:57;13.40;;;9.65;;
58302;SDS011;44109;52.398;7.024;2022-09-12T11:41:17;12.90;;;8.05;;
58302;SDS011;44109;52.398;7.024;2022-09-12T11:43:53;11.85;;;7.82;;
58302;SDS011;44109;52.398;7.024;2022-09-12T11:46:31;13.30;;;6.88;;
58302;SDS011;44109;52.398;7.024;2022-09-12T11:49:05;12.05;;;7.15;;
58302;SDS011;44109;52.398;7.024;2022-09-12T11:51:48;11.00;;;7.32;;
58302;SDS011;44109;52.398;7.024;2022-09-12T11:54:23;10.02;;;7.13;;
58302;SDS011;44109;52.398;7.024;2022-09-12T11:57:00;9.63;;;6.88;;
58302;SDS011;44109;52.398;7.024;2022-09-12T11:59:41;11.00;;;7.18;;
58302;SDS011;44109;52.398;7.024;2022-09-12T12:02:18;12.85;;;7.55;;
58302;SDS011;44109;52.398;7.024;2022-09-12T12:04:58;9.88;;;6.88;;
58302;SDS011;44109;52.398;7.024;2022-09-12T12:07:41;9.27;;;7.28;;
58302;SDS011;44109;52.398;7.024;2022-09-12T12:10:23;8.75;;;6.85;;
58302;SDS011;44109;52.398;7.024;2022-09-12T12:12:57;9.85;;;7.05;;
58302;SDS011;44109;52.398;7.024;2022-09-12T12:15:28;10.23;;;6.43;;
58302;SDS011;44109;52.398;7.024;2022-09-12T12:18:04;10.30;;;6.43;;
58302;SDS011;44109;52.398;7.024;2022-09-12T12:20:42;9.38;;;6.65;;
58302;SDS011;44109;52.398;7.024;2022-09-12T12:23:21;10.40;;;6.85;;
58302;SDS011;44109;52.398;7.024;2022-09-12T12:25:53;6.70;;;4.70;;
58302;SDS011;44109;52.398;7.024;2022-09-12T12:31:25;8.45;;;5.80;;
58302;SDS011;44109;52.398;7.024;2022-09-12T12:34:03;7.78;;;5.65;;
58302;SDS011;44109;52.398;7.024;2022-09-12T12:36:54;6.95;;;5.22;;
58302;SDS011;44109;52.398;7.024;2022-09-12T12:51:56;11.63;;;5.97;;
58302;SDS011;44109;52.398;7.024;2022-09-12T12:54:31;8.18;;;4.13;;
58302;SDS011;44109;52.398;7.024;2022-09-12T12:57:16;8.32;;;4.63;;
58302;SDS011;44109;52.398;7.024;2022-09-12T12:59:53;6.40;;;4.72;;
58302;SDS011;44109;52.398;7.024;2022-09-12T13:02:28;6.28;;;4.03;;
58302;SDS011;44109;52.398;7.024;2022-09-12T13:05:01;6.90;;;4.40;;
58302;SDS011;44109;52.398;7.024;2022-09-12T13:07:42;7.53;;;4.05;;
58302;SDS011;44109;52.398;7.024;2022-09-12T13:10:18;5.47;;;4.25;;
58302;SDS011;44109;52.398;7.024;2022-09-12T13:12:50;5.53;;;3.67;;
58302;SDS011;44109;52.398;7.024;2022-09-12T13:15:42;5.85;;;3.63;;
58302;SDS011;44109;52.398;7.024;2022-09-12T13:18:18;4.97;;;3.53;;
58302;SDS011;44109;52.398;7.024;2022-09-12T13:20:53;5.35;;;3.80;;
58302;SDS011;44109;52.398;7.024;2022-09-12T13:23:35;6.03;;;2.92;;
58302;SDS011;44109;52.398;7.024;2022-09-12T13:26:08;4.68;;;3.47;;
58302;SDS011;44109;52.398;7.024;2022-09-12T13:28:38;3.97;;;2.80;;
58302;SDS011;44109;52.398;7.024;2022-09-12T13:31:08;4.82;;;3.50;;
58302;SDS011;44109;52.398;7.024;2022-09-12T13:33:45;5.05;;;3.08;;
58302;SDS011;44109;52.398;7.024;2022-09-12T13:36:36;4.78;;;3.50;;
58302;SDS011;44109;52.398;7.024;2022-09-12T13:39:46;4.85;;;3.72;;
58302;SDS011;44109;52.398;7.024;2022-09-12T13:42:28;4.50;;;3.22;;
58302;SDS011;44109;52.398;7.024;2022-09-12T13:45:12;6.70;;;3.85;;
58302;SDS011;44109;52.398;7.024;2022-09-12T13:47:46;5.00;;;3.60;;
58302;SDS011;44109;52.398;7.024;2022-09-12T13:50:18;4.55;;;3.45;;
58302;SDS011;44109;52.398;7.024;2022-09-12T13:52:51;4.40;;;3.40;;
58302;SDS011;44109;52.398;7.024;2022-09-12T13:55:26;4.35;;;2.85;;
58302;SDS011;44109;52.398;7.024;2022-09-12T13:57:58;5.47;;;3.85;;
58302;SDS011;44109;52.398;7.024;2022-09-12T14:00:29;4.22;;;3.00;;
58302;SDS011;44109;52.398;7.024;2022-09-12T14:03:00;5.20;;;3.13;;
58302;SDS011;44109;52.398;7.024;2022-09-12T14:05:56;4.82;;;3.20;;
58302;SDS011;44109;52.398;7.024;2022-09-12T14:08:23;4.38;;;3.30;;
58302;SDS011;44109;52.398;7.024;2022-09-12T14:10:53;4.10;;;3.03;;
58302;SDS011;44109;52.398;7.024;2022-09-12T14:13:21;5.22;;;2.58;;
58302;SDS011;44109;52.398;7.024;2022-09-12T14:15:53;4.68;;;2.80;;
58302;SDS011;44109;52.398;7.024;2022-09-12T14:18:24;3.63;;;2.40;;
58302;SDS011;44109;52.398;7.024;2022-09-12T14:20:56;3.47;;;2.85;;
58302;SDS011;44109;52.398;7.024;2022-09-12T14:23:38;4.05;;;2.38;;
58302;SDS011;44109;52.398;7.024;2022-09-12T14:26:14;4.07;;;2.97;;
58302;SDS011;44109;52.398;7.024;2022-09-12T14:28:44;3.45;;;2.40;;
58302;SDS011;44109;52.398;7.024;2022-09-12T14:31:19;3.83;;;2.25;;
58302;SDS011;44109;52.398;7.024;2022-09-12T14:33:51;4.07;;;2.30;;
58302;SDS011;44109;52.398;7.024;2022-09-12T14:36:22;3.45;;;2.45;;
58302;SDS011;44109;52.398;7.024;2022-09-12T14:38:53;4.20;;;2.95;;
58302;SDS011;44109;52.398;7.024;2022-09-12T14:41:26;5.60;;;2.65;;
58302;SDS011;44109;52.398;7.024;2022-09-12T14:43:59;3.70;;;2.60;;
58302;SDS011;44109;52.398;7.024;2022-09-12T14:46:31;3.15;;;2.40;;
58302;SDS011;44109;52.398;7.024;2022-09-12T14:49:05;3.58;;;2.92;;
58302;SDS011;44109;52.398;7.024;2022-09-12T14:51:39;5.57;;;3.15;;
58302;SDS011;44109;52.398;7.024;2022-09-12T14:54:37;6.07;;;3.78;;
58302;SDS011;44109;52.398;7.024;2022-09-12T15:00:15;3.92;;;2.72;;
58302;SDS011;44109;52.398;7.024;2022-09-12T15:02:47;5.53;;;2.87;;
58302;SDS011;44109;52.398;7.024;2022-09-12T15:05:17;4.05;;;2.88;;
58302;SDS011;44109;52.398;7.024;2022-09-12T15:07:50;5.45;;;2.65;;
58302;SDS011;44109;52.398;7.024;2022-09-12T15:10:26;4.28;;;2.95;;
58302;SDS011;44109;52.398;7.024;2022-09-12T15:13:08;4.38;;;3.10;;
58302;SDS011;44109;52.398;7.024;2022-09-12T15:15:41;7.15;;;3.15;;
58302;SDS011;44109;52.398;7.024;2022-09-12T15:18:11;5.35;;;3.10;;
58302;SDS011;44109;52.398;7.024;2022-09-12T15:20:40;5.95;;;3.05;;
58302;SDS011;44109;52.398;7.024;2022-09-12T15:23:11;4.38;;;3.05;;
58302;SDS011;44109;52.398;7.024;2022-09-12T15:25:45;4.82;;;3.47;;
58302;SDS011;44109;52.398;7.024;2022-09-12T15:28:16;5.15;;;3.42;;
58302;SDS011;44109;52.398;7.024;2022-09-12T15:30:46;4.30;;;3.05;;
58302;SDS011;44109;52.398;7.024;2022-09-12T15:33:17;5.20;;;3.40;;
58302;SDS011;44109;52.398;7.024;2022-09-12T15:35:47;4.10;;;2.90;;
58302;SDS011;44109;52.398;7.024;2022-09-12T15:38:16;4.97;;;2.80;;
58302;SDS011;44109;52.398;7.024;2022-09-12T15:40:43;2.70;;;2.30;;
58302;SDS011;44109;52.398;7.024;2022-09-12T15:43:19;4.10;;;3.15;;
58302;SDS011;44109;52.398;7.024;2022-09-12T15:45:47;5.72;;;3.05;;
58302;SDS011;44109;52.398;7.024;2022-09-12T15:48:17;4.07;;;3.17;;
58302;SDS011;44109;52.398;7.024;2022-09-12T15:50:46;6.07;;;2.90;;
58302;SDS011;44109;52.398;7.024;2022-09-12T15:53:14;5.65;;;3.63;;